Time;durP1;ratioP1;P1;durP2;ratioP2;P2;SDS_P1;SDS_P2;PMS_P1;PMS_P2;Temp;Humidity;BMP_temperature;BMP_pressure;BME280_temperature;BME280_humidity;BME280_pressure;Samples;Min_cycle;Max_cycle;Signal;HPM_P1;HPM_P2
2022/02/09 00:04:18;;;;;;;48.88;36.75;;;;;;;;;;5014014;28;20119;-45
2022/02/09 00:09:21;;;;;;;118.55;64.85;;;;;;;;;;5017031;28;20026;-47
2022/02/09 00:12:02;;;;;;;83.68;46.08;;;;;;;;;;5018185;28;20041;-46
2022/02/09 00:19:54;;;;;;;61.22;41.63;;;;;;;;;;5019501;28;20056;-45
2022/02/09 00:59:56;;;;;;;29.27;22.75;;;;;;;;;;5013523;28;20553;-48
2022/02/09 01:38:05;;;;;;;31.10;19.92;;;;;;;;;;5017809;28;20092;-47
2022/02/09 01:56:28;;;;;;;33.17;22.10;;;;;;;;;;5013881;28;20047;-48
2022/02/09 01:58:53;;;;;;;31.98;22.30;;;;;;;;;;5015121;28;20021;-46
2022/02/09 02:01:19;;;;;;;29.55;21.70;;;;;;;;;;5015712;28;20031;-48
2022/02/09 02:03:44;;;;;;;24.35;19.85;;;;;;;;;;5012009;28;20427;-45
2022/02/09 02:06:12;;;;;;;27.67;18.70;;;;;;;;;;5016531;28;20029;-46
2022/02/09 02:08:38;;;;;;;30.65;17.42;;;;;;;;;;5014712;28;20022;-46
2022/02/09 02:11:16;;;;;;;22.10;11.98;;;;;;;;;;5016352;28;20076;-46
2022/02/09 02:18:49;;;;;;;;;;;;;;;;;;5015399;28;20080;-47
2022/02/09 02:28:49;;;;;;;;;;;;;;;;;;5013323;28;20376;-46
2022/02/09 03:08:30;;;;;;;;;;;;;;;;;;5018560;28;19956;-46
2022/02/09 03:13:28;;;;;;;;;;;;;;;;;;5022269;28;19936;-47
2022/02/09 03:16:00;;;;;;;;;;;;;;;;;;5020525;28;19983;-48
2022/02/09 03:21:03;;;;;;;;;;;;;;;;;;5018850;28;19928;-45
2022/02/09 03:23:43;;;;;;;;;;;;;;;;;;5019151;28;19914;-45
2022/02/09 03:47:44;;;;;;;;;;;;;;;;;;5019418;28;19917;-47
2022/02/09 03:57:49;;;;;;;;;;;;;;;;;;5019632;28;19917;-46
2022/02/09 04:00:14;;;;;;;;;;;;;;;;;;5017951;28;19909;-48
2022/02/09 04:02:39;;;;;;;;;;;;;;;;;;5016574;28;19905;-51
2022/02/09 04:05:04;;;;;;;;;;;;;;;;;;5017876;28;19912;-49
2022/02/09 04:07:30;;;;;;;;;;;;;;;;;;5018420;28;20007;-50
2022/02/09 04:09:58;;;;;;;;;;;;;;;;;;5018936;28;19999;-44
2022/02/09 04:16:05;;;;;;;;;;;;;;;;;;5024847;28;20421;-45
2022/02/09 04:37:21;;;;;;;;;;;;;;;;;;5016519;28;19995;-46
2022/02/09 04:39:51;;;;;;;;;;;;;;;;;;5014228;28;19997;-46
2022/02/09 04:57:50;;;;;;;;;;;;;;;;;;5016006;28;19913;-45
2022/02/09 05:27:14;;;;;;;;;;;;;;;;;;5018028;28;19919;-46
2022/02/09 05:29:40;;;;;;;;;;;;;;;;;;5016450;28;19909;-47
2022/02/09 05:32:05;;;;;;;;;;;;;;;;;;5014740;28;20364;-48
2022/02/09 05:34:30;;;;;;;;;;;;;;;;;;5017249;28;19959;-46
2022/02/09 05:36:56;;;;;;;;;;;;;;;;;;5017141;28;19909;-48
2022/02/09 05:39:21;;;;;;;;;;;;;;;;;;5017833;28;20470;-46
2022/02/09 05:41:47;;;;;;;;;;;;;;;;;;5016263;28;19956;-45
2022/02/09 05:44:13;;;;;;;;;;;;;;;;;;5015854;28;19909;-44
2022/02/09 05:51:54;;;;;;;;;;;;;;;;;;5015109;28;19912;-45
2022/02/09 05:59:46;;;;;;;;;;;;;;;;;;5015711;28;19982;-44
2022/02/09 06:02:12;;;;;;;;;;;;;;;;;;5018987;28;20008;-46
2022/02/09 06:04:38;;;;;;;;;;;;;;;;;;5015510;28;19905;-44
2022/02/09 06:07:03;;;;;;;;;;;;;;;;;;5016343;28;19909;-43
2022/02/09 06:09:28;;;;;;;;;;;;;;;;;;5017836;28;20043;-45
2022/02/09 06:12:22;;;;;;;;;;;;;;;;;;5016117;28;20305;-46
2022/02/09 06:20:07;;;;;;;;;;;;;;;;;;5015860;28;19917;-46
2022/02/09 06:22:32;;;;;;;;;;;;;;;;;;5015486;28;19909;-46
2022/02/09 06:24:57;;;;;;;;;;;;;;;;;;5014047;28;19955;-45
2022/02/09 06:27:22;;;;;;;;;;;;;;;;;;5010465;28;19979;-49
2022/02/09 06:29:48;;;;;;;;;;;;;;;;;;5014925;28;19969;-46
2022/02/09 06:32:13;;;;;;;;;;;;;;;;;;5013225;28;20039;-47
2022/02/09 06:34:39;;;;;;;;;;;;;;;;;;5016320;28;20397;-49
2022/02/09 06:37:20;;;;;;;;;;;;;;;;;;5021718;28;20484;-47
2022/02/09 06:39:47;;;;;;;;;;;;;;;;;;5019733;28;19910;-48
2022/02/09 06:42:15;;;;;;;;;;;;;;;;;;5017969;28;19956;-45
2022/02/09 06:44:40;;;;;;;;;;;;;;;;;;5016482;28;19916;-47
2022/02/09 06:47:06;;;;;;;;;;;;;;;;;;5017730;28;19913;-47
2022/02/09 06:49:33;;;;;;;;;;;;;;;;;;5017701;28;20354;-44
2022/02/09 06:51:58;;;;;;;;;;;;;;;;;;5018328;28;19909;-47
2022/02/09 06:54:32;;;;;;;;;;;;;;;;;;5020893;28;19967;-49
2022/02/09 06:57:07;;;;;;;;;;;;;;;;;;5022732;28;20015;-52
2022/02/09 06:59:34;;;;;;;;;;;;;;;;;;5019575;28;20060;-47
2022/02/09 07:02:02;;;;;;;;;;;;;;;;;;5021069;28;19909;-46
2022/02/09 07:04:27;;;;;;;;;;;;;;;;;;5017468;28;19952;-50
2022/02/09 07:06:52;;;;;;;;;;;;;;;;;;5020231;28;20037;-50
2022/02/09 07:09:17;;;;;;;;;;;;;;;;;;5018638;28;19917;-47
2022/02/09 07:11:42;;;;;;;;;;;;;;;;;;5018583;28;19909;-49
2022/02/09 07:14:09;;;;;;;;;;;;;;;;;;5018552;28;19909;-47
2022/02/09 07:16:35;;;;;;;;;;;;;;;;;;5016346;28;20325;-46
2022/02/09 07:19:04;;;;;;;;;;;;;;;;;;5016340;28;19912;-47
2022/02/09 07:21:31;;;;;;;;;;;;;;;;;;5022271;28;19965;-46
2022/02/09 07:23:59;;;;;;;;;;;;;;;;;;5017405;28;19939;-45
2022/02/09 07:29:08;;;;;;;;;;;;;;;;;;5019620;28;20192;-39
2022/02/09 07:31:33;;;;;;;;;;;;;;;;;;5019184;28;20544;-39
2022/02/09 07:33:59;;;;;;;;;;;;;;;;;;5018640;28;20415;-40
2022/02/09 07:36:26;;;;;;;;;;;;;;;;;;5015307;28;19953;-39
2022/02/09 07:38:51;;;;;;;;;;;;;;;;;;5019395;28;19909;-39
2022/02/09 07:41:18;;;;;;;;;;;;;;;;;;5019582;28;19954;-43
2022/02/09 07:56:12;;;;;;;;;;;;;;;;;;5019420;28;19967;-42
2022/02/09 07:58:37;;;;;;;;;;;;;;;;;;5018620;28;19913;-39
2022/02/09 08:01:02;;;;;;;;;;;;;;;;;;5018465;28;19924;-40
2022/02/09 08:03:27;;;;;;;;;;;;;;;;;;5018875;28;20294;-42
2022/02/09 08:05:53;;;;;;;;;;;;;;;;;;5018718;28;19968;-39
2022/02/09 08:08:18;;;;;;;;;;;;;;;;;;5019490;28;19917;-42
2022/02/09 08:10:54;;;;;;;;;;;;;;;;;;5016969;28;19920;-41
2022/02/09 08:30:03;;;;;;;;;;;;;;;;;;5019128;28;19948;-40
2022/02/09 08:34:53;;;;;;;;;;;;;;;;;;5016502;28;20577;-39
2022/02/09 08:37:19;;;;;;;;;;;;;;;;;;5014552;28;19944;-39
2022/02/09 08:39:44;;;;;;;;;;;;;;;;;;5018521;28;19985;-45
2022/02/09 08:42:09;;;;;;;;;;;;;;;;;;5016938;28;20278;-41
2022/02/09 08:44:34;;;;;;;;;;;;;;;;;;5016196;28;20220;-42
2022/02/09 08:46:59;;;;;;;;;;;;;;;;;;5017568;28;19991;-41
2022/02/09 08:49:26;;;;;;;;;;;;;;;;;;5017294;28;19925;-42
2022/02/09 08:51:51;;;;;;;;;;;;;;;;;;5018217;28;19934;-42
2022/02/09 08:54:17;;;;;;;;;;;;;;;;;;5017101;28;19995;-42
2022/02/09 08:56:42;;;;;;;;;;;;;;;;;;5014737;28;19917;-42
2022/02/09 08:59:08;;;;;;;;;;;;;;;;;;5015008;28;19909;-46
2022/02/09 09:01:35;;;;;;;;;;;;;;;;;;5017703;28;20499;-39
2022/02/09 09:04:07;;;;;;;;;;;;;;;;;;5015189;28;19913;-40
2022/02/09 09:06:39;;;;;;;;;;;;;;;;;;5014810;28;20109;-43
2022/02/09 09:09:20;;;;;;;;;;;;;;;;;;5015754;28;19913;-39
2022/02/09 09:17:41;;;;;;;;;;;;;;;;;;5018368;28;20392;-42
2022/02/09 10:03:59;;;;;;;;;;;;;;;;;;5015381;28;19979;-38
2022/02/09 10:33:29;;;;;;;;;;;;;;;;;;5014956;28;19912;-42
2022/02/09 10:36:02;;;;;;;;;;;;;;;;;;5015731;28;19915;-40
2022/02/09 10:38:31;;;;;;;;;;;;;;;;;;5013610;28;20000;-43
2022/02/09 10:40:57;;;;;;;;;;;;;;;;;;5013202;28;19917;-44
2022/02/09 10:43:23;;;;;;;;;;;;;;;;;;5010197;28;19917;-45
2022/02/09 10:45:50;;;;;;;;;;;;;;;;;;5016448;28;20689;-40
2022/02/09 10:48:15;;;;;;;;;;;;;;;;;;5015358;28;19940;-42
2022/02/09 10:50:40;;;;;;;;;;;;;;;;;;5014393;28;19910;-42
2022/02/09 10:53:05;;;;;;;;;;;;;;;;;;5014364;28;19909;-42
2022/02/09 10:55:31;;;;;;;;;;;;;;;;;;5014536;28;20413;-42
2022/02/09 10:57:56;;;;;;;;;;;;;;;;;;5013945;28;20012;-40
2022/02/09 11:00:22;;;;;;;;;;;;;;;;;;5009776;28;19987;-42
2022/02/09 11:02:47;;;;;;;;;;;;;;;;;;5013364;28;19979;-41
2022/02/09 11:05:12;;;;;;;;;;;;;;;;;;5014364;28;19917;-41
2022/02/09 11:07:38;;;;;;;;;;;;;;;;;;5013098;28;19916;-43
2022/02/09 11:10:03;;;;;;;;;;;;;;;;;;5015665;28;19916;-45
2022/02/09 11:12:28;;;;;;;;;;;;;;;;;;5014988;28;19916;-42
2022/02/09 11:14:53;;;;;;;;;;;;;;;;;;5013243;28;20035;-42
2022/02/09 11:17:18;;;;;;;;;;;;;;;;;;5016813;28;19920;-41
2022/02/09 11:19:45;;;;;;;;;;;;;;;;;;5015829;28;20091;-45
2022/02/09 11:22:11;;;;;;;;;;;;;;;;;;5016666;28;19913;-48
2022/02/09 11:24:42;;;;;;;;;;;;;;;;;;5020084;28;19931;-42
2022/02/09 11:27:12;;;;;;;;;;;;;;;;;;5022048;28;19914;-42
2022/02/09 11:29:46;;;;;;;;;;;;;;;;;;5017498;28;20271;-43
2022/02/09 11:34:42;;;;;;;;;;;;;;;;;;5018118;28;19920;-42
2022/02/09 11:37:10;;;;;;;;;;;;;;;;;;5017774;28;19913;-42
2022/02/09 11:39:35;;;;;;;;;;;;;;;;;;5016958;28;19913;-44
2022/02/09 11:42:09;;;;;;;;;;;;;;;;;;5017524;28;20653;-42
2022/02/09 11:44:34;;;;;;;;;;;;;;;;;;5015758;28;20494;-42
2022/02/09 11:47:16;;;;;;;;;;;;;;;;;;5018494;28;19914;-41
2022/02/09 11:55:38;;;;;;;;;;;;;;;;;;5020173;28;19916;-46
2022/02/09 12:13:42;;;;;;;;;;;;;;;;;;5012271;28;19913;-41
2022/02/09 12:16:33;;;;;;;;;;;;;;;;;;5011506;28;19909;-42
2022/02/09 12:18:55;;;;;;;;;;;;;;;;;;5013068;28;20382;-41
2022/02/09 12:21:37;;;;;;;;;;;;;;;;;;5008324;28;19922;-42
2022/02/09 12:24:02;;;;;;;;;;;;;;;;;;5014762;28;19912;-42
2022/02/09 12:26:27;;;;;;;;;;;;;;;;;;5014661;28;19913;-41
2022/02/09 12:28:54;;;;;;;;;;;;;;;;;;5011140;28;19913;-42
2022/02/09 12:31:23;;;;;;;;;;;;;;;;;;5013518;28;20121;-45
2022/02/09 12:33:51;;;;;;;;;;;;;;;;;;5011691;28;19913;-40
2022/02/09 12:36:16;;;;;;;;;;;;;;;;;;5014516;28;20248;-41
2022/02/09 12:38:41;;;;;;;;;;;;;;;;;;5013120;28;20668;-42
2022/02/09 12:41:06;;;;;;;;;;;;;;;;;;5015087;28;19924;-42
2022/02/09 12:43:31;;;;;;;;;;;;;;;;;;5013578;28;19994;-43
2022/02/09 12:45:56;;;;;;;;;;;;;;;;;;5012324;28;19909;-45
2022/02/09 12:48:21;;;;;;;;;;;;;;;;;;5013295;28;20383;-44
2022/02/09 12:50:47;;;;;;;;;;;;;;;;;;5014135;28;19956;-43
2022/02/09 12:53:12;;;;;;;;;;;;;;;;;;5013408;28;19913;-45
2022/02/09 12:55:37;;;;;;;;;;;;;;;;;;5010392;28;20457;-43
2022/02/09 12:58:04;;;;;;;;;;;;;;;;;;5015059;28;19971;-45
2022/02/09 13:00:29;;;;;;;;;;;;;;;;;;5011728;28;20702;-45
2022/02/09 13:02:54;;;;;;;;;;;;;;;;;;5015269;28;19909;-44
2022/02/09 13:05:19;;;;;;;;;;;;;;;;;;5013913;28;19909;-42
2022/02/09 13:07:45;;;;;;;;;;;;;;;;;;5012936;28;19917;-45
2022/02/09 13:10:10;;;;;;;;;;;;;;;;;;5011416;28;20016;-43
2022/02/09 13:12:41;;;;;;;;;;;;;;;;;;5015462;28;20249;-44
2022/02/09 13:15:17;;;;;;;;;;;;;;;;;;5012087;28;19917;-46
2022/02/09 13:17:51;;;;;;;;;;;;;;;;;;5011684;28;19913;-42
2022/02/09 13:20:47;;;;;;;;;;;;;;;;;;5012267;28;19917;-45
2022/02/09 13:26:28;;;;;;;;;;;;;;;;;;5011809;28;19916;-41
2022/02/09 14:13:01;;;;;;;;;;;;;;;;;;5011581;28;19913;-40
2022/02/09 14:15:48;;;;;;;;;;;;;;;;;;5011894;28;19931;-44
2022/02/09 14:18:44;;;;;;;;;;;;;;;;;;5012423;28;19916;-41
2022/02/09 14:32:01;;;;;;;;;;;;;;;;;;5013594;28;19924;-39
2022/02/09 14:48:59;;;;;;;;;;;;;;;;;;5014917;28;19924;-42
2022/02/09 14:59:12;;;;;;;;;;;;;;;;;;5018847;28;19932;-42
2022/02/09 15:01:45;;;;;;;;;;;;;;;;;;5016999;28;20534;-45
2022/02/09 15:07:00;;;;;;;;;;;;;;;;;;5018757;28;19971;-40
2022/02/09 15:09:48;;;;;;;;;;;;;;;;;;5017308;28;19909;-41
2022/02/09 15:12:22;;;;;;;;;;;;;;;;;;5018446;28;19909;-40
2022/02/09 15:15:02;;;;;;;;;;;;;;;;;;5015729;28;19979;-40
2022/02/09 15:23:16;;;;;;;;;;;;;;;;;;5017185;28;19941;-48
2022/02/09 15:25:42;;;;;;;;;;;;;;;;;;5017688;28;19911;-41
2022/02/09 15:28:09;;;;;;;;;;;;;;;;;;5018694;28;19988;-40
2022/02/09 15:30:44;;;;;;;;;;;;;;;;;;5018063;28;19909;-43
2022/02/09 15:33:09;;;;;;;;;;;;;;;;;;5018026;28;19909;-41
2022/02/09 15:35:39;;;;;;;;;;;;;;;;;;5015104;28;20301;-42
2022/02/09 16:46:34;;;;;;;;;;;;;;;;;;5017276;28;19998;-39
2022/02/09 16:51:25;;;;;;;;;;;;;;;;;;5019767;28;19943;-38
2022/02/09 16:54:07;;;;;;;;;;;;;;;;;;5013464;28;20550;-38
2022/02/09 17:20:54;;;;;;;;;;;;;;;;;;5016855;28;20148;-43
2022/02/09 17:23:19;;;;;;;;;;;;;;;;;;5016936;28;20366;-40
2022/02/09 17:25:45;;;;;;;;;;;;;;;;;;5013863;28;19949;-39
2022/02/09 17:28:14;;;;;;;;;;;;;;;;;;5018423;28;19916;-42
2022/02/09 17:33:38;;;;;;;;;;;;;;;;;;5012921;28;19944;-40
2022/02/09 17:57:23;;;;;;;;;;;;;;;;;;5017010;28;19916;-39
2022/02/09 18:00:07;;;;;;;;;;;;;;;;;;5017348;28;19913;-43
2022/02/09 18:02:34;;;;;;;;;;;;;;;;;;5017660;28;20358;-42
2022/02/09 18:04:59;;;;;;;;;;;;;;;;;;5013531;28;20377;-43
2022/02/09 18:07:25;;;;;;;;;;;;;;;;;;5016958;28;19915;-44
2022/02/09 18:09:52;;;;;;;;;;;;;;;;;;5015934;28;19986;-41
2022/02/09 18:31:09;;;;;;;;;;;;;;;;;;5013364;28;20114;-42
2022/02/09 18:44:27;;;;;;;;;;;;;;;;;;5026311;28;19913;-43
2022/02/09 19:00:29;;;;;;;;;;;;;;;;;;5017778;28;20441;-40
2022/02/09 19:03:04;;;;;;;;;;;;;;;;;;5019492;28;20424;-39
2022/02/09 19:05:35;;;;;;;;;;;;;;;;;;5015367;28;20316;-39
2022/02/09 19:18:39;;;;;;;;;;;;;;;;;;5013060;28;19909;-38
2022/02/09 19:29:46;;;;;;;;;;;;;;;;;;5017135;28;19979;-40
2022/02/09 19:53:11;;;;;;;;;;;;;;;;;;;;;
2022/02/09 19:55:31;;;;;;;;;;;;;;;;;;5016652;28;19967;-40
2022/02/09 19:57:58;;;;;;;;;;;;;;;;;;5014969;28;20066;-42
2022/02/09 20:00:26;;;;;;;;;;;;;;;;;;5021018;28;20351;-40
2022/02/09 20:02:51;;;;;;;;;;;;;;;;;;5017105;28;19909;-39
2022/02/09 20:05:17;;;;;;;;;;;;;;;;;;5017452;28;19905;-40
2022/02/09 20:07:42;;;;;;;;;;;;;;;;;;5015822;28;19913;-42
2022/02/09 20:10:09;;;;;;;;;;;;;;;;;;5019116;28;19912;-40
2022/02/09 20:12:34;;;;;;;;;;;;;;;;;;5017289;28;19913;-39
2022/02/09 20:14:59;;;;;;;;;;;;;;;;;;5017439;28;19906;-43
2022/02/09 20:17:24;;;;;;;;;;;;;;;;;;5020182;28;19909;-42
2022/02/09 20:19:56;;;;;;;;;;;;;;;;;;5018113;28;20278;-40
2022/02/09 20:22:21;;;;;;;;;;;;;;;;;;5016658;28;20282;-38
2022/02/09 20:24:46;;;;;;;;;;;;;;;;;;5021647;28;19912;-40
2022/02/09 20:27:14;;;;;;;;;;;;;;;;;;5017915;28;19968;-38
2022/02/09 20:29:40;;;;;;;;;;;;;;;;;;5014656;28;20064;-39
2022/02/09 20:34:36;;;;;;;;;;;;;;;;;;5015006;28;20059;-41
2022/02/09 20:37:02;;;;;;;;;;;;;;;;;;5016426;28;19944;-39
2022/02/09 20:39:32;;;;;;;;;;;;;;;;;;5017474;28;19967;-38
2022/02/09 20:41:59;;;;;;;;;;;;;;;;;;5016573;28;19909;-38
2022/02/09 20:44:32;;;;;;;;;;;;;;;;;;5015740;28;19906;-38
2022/02/09 20:46:58;;;;;;;;;;;;;;;;;;5020983;28;19909;-38
2022/02/09 20:49:25;;;;;;;;;;;;;;;;;;5012238;28;19984;-39
2022/02/09 20:51:50;;;;;;;;;;;;;;;;;;5015086;28;20067;-39
2022/02/09 20:54:15;;;;;;;;;;;;;;;;;;5013090;28;20492;-38
2022/02/09 20:56:40;;;;;;;;;;;;;;;;;;5013741;28;19909;-39
2022/02/09 20:59:09;;;;;;;;;;;;;;;;;;5018973;28;19943;-38
2022/02/09 21:04:17;;;;;;;;;;;;;;;;;;5014417;28;19932;-47
2022/02/09 21:14:32;;;;;;;;;;;;;;;;;;5017541;28;19928;-46
2022/02/09 21:19:55;;;;;;;;;;;;;;;;;;5014063;28;19916;-45
2022/02/09 21:33:16;;;;;;;;;;;;;;;;;;5017130;28;20353;-46
2022/02/09 21:49:09;;;;;;;;;;;;;;;;;;5014459;28;19987;-48
2022/02/09 21:55:18;;;;;;;;;;;;;;;;;;5018219;28;20540;-46
2022/02/09 21:57:53;;;;;;;;;;;;;;;;;;5016596;28;19913;-44
2022/02/09 22:54:26;;;;;;;;;;;;;;;;;;5015070;28;19920;-47
2022/02/09 22:56:28;;;;;;;;;;;;;;;;;;5012522;28;19932;-47
2022/02/09 22:58:53;;;;;;;;;;;;;;;;;;5010980;28;19917;-46
2022/02/09 23:01:31;;;;;;;;;;;;;;;;;;5011184;28;20405;-45
2022/02/09 23:06:34;;;;;;;;;;;;;;;;;;5012715;28;19909;-48
2022/02/09 23:54:58;;;;;;;;;;;;;;;;;;5012309;28;19916;-46
